Agat, Guam
Current Conditions -  °F | °C
As of 1:20 PM on Friday 19 Dec 2014 (Local Time) from PGUM Reporting Station
Moderate Rain Moderate Rain  
Wind Chill: 81°   Ceiling: 3300
Heat Index: 86°   Visibility: 2mi
Dew Point: 75°   Wind: 25mph
Humidity: 84%   Direction: 60°ENE
Pressure: 29.92"   Gusts: 37mph
Location:  13.38°N, 144.65°E
Report Text: PGUM 190320Z 06022G32KT 2SM RA BR FEW013 SCT023 OVC033 27/24 A2992 RMK AO2 PK WND 07032/0312 RAB11 P0002
Loading
Personal Weather Stations






























Interactive Weather Map New forecast layout! Learn more

10-Day Weather Forecast

Advertisements
Track Severe Weather on mobile